Time;durP1;ratioP1;P1;durP2;ratioP2;P2;SDS_P1;SDS_P2;PMS_P1;PMS_P2;Temp;Humidity;BMP_temperature;BMP_pressure;BME280_temperature;BME280_humidity;BME280_pressure;Samples;Min_cycle;Max_cycle;Signal;HPM_P1;HPM_P2
2021/06/25 00:01:23;;;;;;;6.30;5.20;;;;;;;;;;4991939;28;20450;-71
2021/06/25 00:03:50;;;;;;;5.77;5.27;;;;;;;;;;4992161;28;20462;-70
2021/06/25 00:06:17;;;;;;;4.73;4.33;;;;;;;;;;4991362;28;20470;-74
2021/06/25 00:08:44;;;;;;;6.60;5.90;;;;;;;;;;4994223;28;20450;-73
2021/06/25 00:11:12;;;;;;;6.27;5.20;;;;;;;;;;4995327;28;20451;-73
2021/06/25 00:13:40;;;;;;;6.30;5.80;;;;;;;;;;4995632;28;20446;-73
2021/06/25 00:16:07;;;;;;;6.10;5.60;;;;;;;;;;4994475;28;20492;-69
2021/06/25 00:18:34;;;;;;;6.33;5.57;;;;;;;;;;4995699;28;20454;-70
2021/06/25 00:21:01;;;;;;;6.10;5.60;;;;;;;;;;4995510;28;20457;-74
2021/06/25 00:23:28;;;;;;;5.33;4.90;;;;;;;;;;4994987;28;20450;-68
2021/06/25 00:25:56;;;;;;;6.17;5.57;;;;;;;;;;4994351;28;20451;-72
2021/06/25 00:28:23;;;;;;;6.83;6.10;;;;;;;;;;4995348;28;20485;-68
2021/06/25 00:30:51;;;;;;;6.70;5.73;;;;;;;;;;4995560;28;20513;-72
2021/06/25 00:33:18;;;;;;;6.90;6.20;;;;;;;;;;4995046;28;20798;-70
2021/06/25 00:35:46;;;;;;;8.30;6.50;;;;;;;;;;4994471;28;20489;-73
2021/06/25 00:38:13;;;;;;;7.23;6.60;;;;;;;;;;4995040;28;20850;-68
2021/06/25 00:40:40;;;;;;;9.73;7.80;;;;;;;;;;4995510;28;20457;-73
2021/06/25 00:43:07;;;;;;;8.17;7.40;;;;;;;;;;4994907;28;20938;-71
2021/06/25 00:45:34;;;;;;;7.13;6.53;;;;;;;;;;4994648;28;20938;-72
2021/06/25 00:48:03;;;;;;;8.20;7.40;;;;;;;;;;4997668;28;20466;-70
2021/06/25 00:50:31;;;;;;;9.10;8.23;;;;;;;;;;4997522;28;20453;-70
2021/06/25 00:52:59;;;;;;;8.33;7.63;;;;;;;;;;4995795;28;20453;-68
2021/06/25 00:55:26;;;;;;;8.77;7.87;;;;;;;;;;4994081;28;20450;-69
2021/06/25 00:57:54;;;;;;;9.10;8.30;;;;;;;;;;4994428;28;20850;-68
2021/06/25 01:00:22;;;;;;;9.10;8.30;;;;;;;;;;4994889;28;20447;-69
2021/06/25 01:02:49;;;;;;;9.23;8.43;;;;;;;;;;4994629;28;20450;-78
2021/06/25 01:05:18;;;;;;;9.50;8.60;;;;;;;;;;4994254;28;20538;-67
2021/06/25 01:07:45;;;;;;;9.80;9.00;;;;;;;;;;4994683;28;20475;-70
2021/06/25 01:10:13;;;;;;;10.27;9.20;;;;;;;;;;4994660;28;20458;-72
2021/06/25 01:12:42;;;;;;;10.33;9.43;;;;;;;;;;4994352;28;20446;-74
2021/06/25 01:15:09;;;;;;;10.30;9.33;;;;;;;;;;4994154;28;20461;-68
2021/06/25 01:17:37;;;;;;;10.70;9.70;;;;;;;;;;4993646;28;20490;-73
2021/06/25 01:20:07;;;;;;;10.70;9.70;;;;;;;;;;4993366;28;20451;-74
2021/06/25 01:22:35;;;;;;;11.33;10.20;;;;;;;;;;4993759;28;20463;-71
2021/06/25 01:25:07;;;;;;;13.63;10.10;;;;;;;;;;4994341;28;20459;-71
2021/06/25 01:27:34;;;;;;;10.20;9.20;;;;;;;;;;4993033;28;20466;-73
2021/06/25 01:30:02;;;;;;;11.67;10.30;;;;;;;;;;4994037;28;20822;-71
2021/06/25 01:32:29;;;;;;;12.20;11.03;;;;;;;;;;4993685;28;20450;-74
2021/06/25 01:34:57;;;;;;;12.37;11.07;;;;;;;;;;4993708;28;20972;-68
2021/06/25 01:37:25;;;;;;;12.00;10.97;;;;;;;;;;4992717;28;20510;-75
2021/06/25 01:42:32;;;;;;;12.97;11.70;;;;;;;;;;5239619;22;20599;-65
2021/06/25 01:45:01;;;;;;;12.00;10.90;;;;;;;;;;4974717;28;20467;-65
2021/06/25 01:47:28;;;;;;;13.33;12.03;;;;;;;;;;4973507;28;20470;-65
2021/06/25 01:49:55;;;;;;;13.17;11.87;;;;;;;;;;4973716;28;20454;-65
2021/06/25 01:52:22;;;;;;;12.93;11.80;;;;;;;;;;4973535;28;20561;-66
2021/06/25 01:54:49;;;;;;;13.07;11.87;;;;;;;;;;4993738;23;20501;-71
2021/06/25 01:57:17;;;;;;;13.37;12.17;;;;;;;;;;4976682;28;20530;-71
2021/06/25 01:59:45;;;;;;;13.37;12.27;;;;;;;;;;4973985;28;20542;-71
2021/06/25 02:02:12;;;;;;;12.80;11.60;;;;;;;;;;4973604;28;20466;-70
2021/06/25 02:04:39;;;;;;;13.57;12.23;;;;;;;;;;4973573;28;20833;-71
2021/06/25 02:07:07;;;;;;;14.23;12.97;;;;;;;;;;4973790;28;20455;-71
2021/06/25 02:09:34;;;;;;;13.13;11.90;;;;;;;;;;4973712;28;20458;-70
2021/06/25 02:12:01;;;;;;;14.13;12.83;;;;;;;;;;4973296;28;20454;-69
2021/06/25 02:14:30;;;;;;;13.87;12.47;;;;;;;;;;4973598;28;20475;-71
2021/06/25 02:16:58;;;;;;;14.13;12.87;;;;;;;;;;4973078;28;20487;-71
2021/06/25 02:19:26;;;;;;;14.20;12.80;;;;;;;;;;4973218;28;20957;-71
2021/06/25 02:21:53;;;;;;;13.77;11.53;;;;;;;;;;4973238;28;20451;-71
2021/06/25 02:24:21;;;;;;;14.30;12.90;;;;;;;;;;4973050;28;20467;-70
2021/06/25 02:26:48;;;;;;;14.70;13.13;;;;;;;;;;4973380;28;20506;-71
2021/06/25 02:29:15;;;;;;;17.13;13.93;;;;;;;;;;4973091;28;20458;-71
2021/06/25 02:31:42;;;;;;;15.07;13.47;;;;;;;;;;4972420;28;20462;-71
2021/06/25 02:34:11;;;;;;;15.93;14.43;;;;;;;;;;4972946;28;20463;-71
2021/06/25 02:36:38;;;;;;;15.47;14.10;;;;;;;;;;4973051;28;20483;-71
2021/06/25 02:39:06;;;;;;;16.80;15.10;;;;;;;;;;4973388;28;20461;-71
2021/06/25 02:41:33;;;;;;;16.07;14.30;;;;;;;;;;4973227;28;20451;-71
2021/06/25 02:44:00;;;;;;;16.90;15.20;;;;;;;;;;4972958;28;20845;-71
2021/06/25 02:46:27;;;;;;;18.10;16.20;;;;;;;;;;4972840;28;20454;-70
2021/06/25 02:48:54;;;;;;;19.33;17.33;;;;;;;;;;4973156;28;20458;-71
2021/06/25 02:51:22;;;;;;;19.03;17.13;;;;;;;;;;4972768;28;20458;-71
2021/06/25 02:53:50;;;;;;;22.40;18.23;;;;;;;;;;4972788;28;20543;-71
2021/06/25 02:56:17;;;;;;;19.23;17.13;;;;;;;;;;4972636;28;20675;-71
2021/06/25 02:58:44;;;;;;;18.53;16.60;;;;;;;;;;4973083;28;20451;-71
2021/06/25 03:01:11;;;;;;;19.70;17.77;;;;;;;;;;4972849;28;20459;-71
2021/06/25 03:03:38;;;;;;;19.03;16.70;;;;;;;;;;4972990;28;20451;-71
2021/06/25 03:06:05;;;;;;;19.23;17.30;;;;;;;;;;4972471;28;20481;-70
2021/06/25 03:08:34;;;;;;;17.80;15.90;;;;;;;;;;4973105;28;20451;-71
2021/06/25 03:11:01;;;;;;;19.77;17.43;;;;;;;;;;4972743;28;20457;-71
2021/06/25 03:13:28;;;;;;;23.00;17.57;;;;;;;;;;4973011;28;20457;-71
2021/06/25 03:15:55;;;;;;;17.87;15.73;;;;;;;;;;4973651;28;20759;-71
2021/06/25 03:18:23;;;;;;;21.37;17.33;;;;;;;;;;4973143;28;20491;-71
2021/06/25 03:20:50;;;;;;;18.23;16.63;;;;;;;;;;4972628;28;20462;-70
2021/06/25 03:23:17;;;;;;;18.87;17.10;;;;;;;;;;4972744;28;20465;-71
2021/06/25 03:25:46;;;;;;;18.20;16.30;;;;;;;;;;4972560;28;20839;-71
2021/06/25 03:28:13;;;;;;;19.10;17.40;;;;;;;;;;4972730;28;20448;-71
2021/06/25 03:30:41;;;;;;;18.63;16.90;;;;;;;;;;4972366;28;20447;-71
2021/06/25 03:33:08;;;;;;;18.97;16.90;;;;;;;;;;4972899;28;20454;-71
2021/06/25 03:35:35;;;;;;;18.97;17.17;;;;;;;;;;4972876;28;20475;-71
2021/06/25 03:38:02;;;;;;;18.80;16.90;;;;;;;;;;4973517;28;20484;-70
2021/06/25 03:40:31;;;;;;;18.73;17.03;;;;;;;;;;4972827;28;20451;-71
2021/06/25 03:43:00;;;;;;;19.63;17.83;;;;;;;;;;4974328;28;20451;-71
2021/06/25 03:45:27;;;;;;;17.97;16.27;;;;;;;;;;4977368;28;20471;-71
2021/06/25 03:47:55;;;;;;;19.57;17.67;;;;;;;;;;4979290;28;20444;-71
2021/06/25 03:50:22;;;;;;;21.00;18.90;;;;;;;;;;4977658;28;20453;-71
2021/06/25 03:52:49;;;;;;;18.60;16.80;;;;;;;;;;4976527;28;20494;-71
2021/06/25 03:55:17;;;;;;;18.20;16.50;;;;;;;;;;4975710;28;20570;-71
2021/06/25 03:57:44;;;;;;;17.40;15.90;;;;;;;;;;4975857;28;20479;-71
2021/06/25 04:00:14;;;;;;;18.37;16.57;;;;;;;;;;4976371;28;20451;-71
2021/06/25 04:02:41;;;;;;;18.57;16.77;;;;;;;;;;4976524;28;20450;-70
2021/06/25 04:05:09;;;;;;;18.53;16.83;;;;;;;;;;4975791;28;20467;-70
2021/06/25 04:07:37;;;;;;;19.73;17.87;;;;;;;;;;4975645;28;20451;-70
2021/06/25 04:10:04;;;;;;;19.70;17.90;;;;;;;;;;4976207;28;20506;-70
2021/06/25 04:12:32;;;;;;;20.00;18.10;;;;;;;;;;4976172;28;20804;-70
2021/06/25 04:14:59;;;;;;;19.23;17.33;;;;;;;;;;4976291;28;20979;-70
2021/06/25 04:17:27;;;;;;;19.53;17.83;;;;;;;;;;4976166;28;20569;-70
2021/06/25 04:19:54;;;;;;;19.43;17.73;;;;;;;;;;4976563;28;20457;-70
2021/06/25 04:22:22;;;;;;;19.20;17.60;;;;;;;;;;4977039;28;20819;-71
2021/06/25 04:24:49;;;;;;;19.43;17.83;;;;;;;;;;4977361;28;20477;-70
2021/06/25 04:27:16;;;;;;;18.50;17.10;;;;;;;;;;4977449;28;20943;-70
2021/06/25 04:29:44;;;;;;;19.73;17.97;;;;;;;;;;4978836;28;20451;-70
2021/06/25 04:32:12;;;;;;;20.27;18.27;;;;;;;;;;4974920;28;21046;-70
2021/06/25 04:34:40;;;;;;;18.33;16.63;;;;;;;;;;4975353;28;20471;-70
2021/06/25 04:37:08;;;;;;;18.90;17.27;;;;;;;;;;4975245;28;21021;-70
2021/06/25 04:39:35;;;;;;;19.43;17.70;;;;;;;;;;4975401;28;20890;-70
2021/06/25 04:42:02;;;;;;;20.07;18.07;;;;;;;;;;4975033;28;20447;-70
2021/06/25 04:44:29;;;;;;;18.90;17.27;;;;;;;;;;4975262;28;20493;-70
2021/06/25 04:46:56;;;;;;;19.77;17.67;;;;;;;;;;4975100;28;20927;-69
2021/06/25 04:49:23;;;;;;;19.23;17.47;;;;;;;;;;4975323;28;20451;-70
2021/06/25 04:51:52;;;;;;;19.37;17.67;;;;;;;;;;4974769;28;20455;-70
2021/06/25 04:54:19;;;;;;;18.40;17.00;;;;;;;;;;4974757;28;20491;-70
2021/06/25 04:56:46;;;;;;;18.83;17.20;;;;;;;;;;4974420;28;20451;-71
2021/06/25 04:59:13;;;;;;;18.20;16.70;;;;;;;;;;4975182;28;20643;-70
2021/06/25 05:01:40;;;;;;;17.20;15.80;;;;;;;;;;4974638;28;20458;-71
2021/06/25 05:04:07;;;;;;;17.80;16.23;;;;;;;;;;4974680;28;20461;-70
2021/06/25 05:06:34;;;;;;;16.80;15.57;;;;;;;;;;4974372;28;20458;-71
2021/06/25 05:09:03;;;;;;;20.53;18.27;;;;;;;;;;4974751;28;20477;-70
2021/06/25 05:11:30;;;;;;;18.13;16.40;;;;;;;;;;4974404;28;20459;-70
2021/06/25 05:13:57;;;;;;;16.33;15.03;;;;;;;;;;4974847;28;20468;-70
2021/06/25 05:16:24;;;;;;;18.70;17.10;;;;;;;;;;4974369;28;20480;-69
2021/06/25 05:18:51;;;;;;;18.87;17.20;;;;;;;;;;4974749;28;20487;-70
2021/06/25 05:21:19;;;;;;;18.70;17.00;;;;;;;;;;4974228;28;20542;-70
2021/06/25 05:23:46;;;;;;;17.40;15.90;;;;;;;;;;4974726;28;20908;-70
2021/06/25 05:26:14;;;;;;;16.40;15.03;;;;;;;;;;4974472;28;20463;-70
2021/06/25 05:28:41;;;;;;;17.90;16.50;;;;;;;;;;4974538;28;20616;-69
2021/06/25 05:31:09;;;;;;;15.47;14.17;;;;;;;;;;4973892;28;20818;-70
2021/06/25 05:33:36;;;;;;;17.33;15.83;;;;;;;;;;4974471;28;20451;-70
2021/06/25 05:36:03;;;;;;;18.20;16.60;;;;;;;;;;4973908;28;20834;-70
2021/06/25 05:38:30;;;;;;;17.07;15.57;;;;;;;;;;4974512;28;20490;-70
2021/06/25 05:40:57;;;;;;;18.03;16.47;;;;;;;;;;4973890;28;20554;-70
2021/06/25 05:43:26;;;;;;;18.57;16.77;;;;;;;;;;4974299;28;20453;-70
2021/06/25 05:45:53;;;;;;;20.03;18.33;;;;;;;;;;4974769;28;21057;-70
2021/06/25 05:48:20;;;;;;;19.90;17.80;;;;;;;;;;4975274;28;20453;-69
2021/06/25 05:50:47;;;;;;;18.13;16.63;;;;;;;;;;4976138;28;20459;-70
2021/06/25 05:53:15;;;;;;;19.30;17.53;;;;;;;;;;4975022;28;20447;-69
2021/06/25 05:55:42;;;;;;;20.30;18.50;;;;;;;;;;4974400;28;20483;-69
2021/06/25 05:58:10;;;;;;;16.60;15.10;;;;;;;;;;4973567;28;20491;-70
2021/06/25 06:00:38;;;;;;;16.20;14.50;;;;;;;;;;4973880;28;20546;-69
2021/06/25 06:03:05;;;;;;;15.73;14.33;;;;;;;;;;4973609;28;20943;-70
2021/06/25 06:05:33;;;;;;;14.60;13.30;;;;;;;;;;4972892;28;21017;-69
2021/06/25 06:08:00;;;;;;;14.17;12.67;;;;;;;;;;4973869;28;20453;-70
2021/06/25 06:10:27;;;;;;;12.90;11.80;;;;;;;;;;4973172;28;20947;-69
2021/06/25 06:12:54;;;;;;;12.57;11.30;;;;;;;;;;4973798;28;20463;-69
2021/06/25 06:15:21;;;;;;;11.40;10.40;;;;;;;;;;4973485;28;20477;-70
2021/06/25 06:17:50;;;;;;;11.00;9.90;;;;;;;;;;4973243;28;20899;-67
2021/06/25 06:20:21;;;;;;;12.20;9.27;;;;;;;;;;4973551;28;20541;-67
2021/06/25 06:31:15;;;;;;;8.37;7.63;;;;;;;;;;4973004;28;20485;-69
2021/06/25 06:33:47;;;;;;;8.03;7.23;;;;;;;;;;4973688;28;20558;-68
2021/06/25 06:36:20;;;;;;;7.90;7.10;;;;;;;;;;4973499;28;20479;-68
2021/06/25 06:38:47;;;;;;;8.00;7.20;;;;;;;;;;4973670;28;20471;-69
2021/06/25 06:41:14;;;;;;;7.57;6.87;;;;;;;;;;4972832;28;20490;-69
2021/06/25 06:43:43;;;;;;;7.70;6.50;;;;;;;;;;4973556;28;20884;-68
2021/06/25 06:46:10;;;;;;;7.70;7.00;;;;;;;;;;4973120;28;20533;-68
2021/06/25 06:48:37;;;;;;;7.70;6.90;;;;;;;;;;4973582;28;20447;-68
2021/06/25 06:51:06;;;;;;;6.90;6.20;;;;;;;;;;4973247;28;20463;-68
2021/06/25 06:53:34;;;;;;;7.10;6.40;;;;;;;;;;4973016;28;20943;-68
2021/06/25 06:56:01;;;;;;;6.57;5.80;;;;;;;;;;4973025;28;20479;-68
2021/06/25 06:58:28;;;;;;;5.83;5.30;;;;;;;;;;4973009;28;20490;-68
2021/06/25 07:00:56;;;;;;;6.10;5.60;;;;;;;;;;4972794;28;20962;-69
2021/06/25 07:03:23;;;;;;;8.20;6.20;;;;;;;;;;4972875;28;20448;-69
2021/06/25 07:05:50;;;;;;;6.00;5.40;;;;;;;;;;4972902;28;20549;-69
2021/06/25 07:08:18;;;;;;;5.60;4.80;;;;;;;;;;4972929;28;20453;-69
2021/06/25 07:10:45;;;;;;;4.90;4.50;;;;;;;;;;4973265;28;20451;-69
2021/06/25 07:13:13;;;;;;;7.07;5.30;;;;;;;;;;4972587;28;20451;-69
2021/06/25 07:15:40;;;;;;;5.77;5.27;;;;;;;;;;4972833;28;20459;-69
2021/06/25 07:18:07;;;;;;;6.47;5.17;;;;;;;;;;4975800;28;20482;-69
2021/06/25 07:20:35;;;;;;;7.87;5.03;;;;;;;;;;4976441;28;20453;-69
2021/06/25 07:23:02;;;;;;;5.97;4.70;;;;;;;;;;4976671;28;20455;-70
2021/06/25 07:25:30;;;;;;;4.70;4.30;;;;;;;;;;4976632;28;20830;-69
2021/06/25 07:27:57;;;;;;;4.40;4.00;;;;;;;;;;4976516;28;20473;-70
2021/06/25 07:30:25;;;;;;;3.93;3.63;;;;;;;;;;4976219;28;20823;-69
2021/06/25 07:32:52;;;;;;;4.10;3.63;;;;;;;;;;4976654;28;20439;-70
2021/06/25 07:35:19;;;;;;;4.30;3.80;;;;;;;;;;4976828;28;20475;-69
2021/06/25 07:37:46;;;;;;;4.67;4.27;;;;;;;;;;4976352;28;20483;-69
2021/06/25 07:40:14;;;;;;;5.90;4.43;;;;;;;;;;4975770;28;20458;-70
2021/06/25 07:42:43;;;;;;;5.00;4.03;;;;;;;;;;4976565;28;20543;-70
2021/06/25 07:45:10;;;;;;;6.67;3.70;;;;;;;;;;4976630;28;20472;-69
2021/06/25 07:47:38;;;;;;;4.23;3.83;;;;;;;;;;4976539;28;20497;-69
2021/06/25 07:50:06;;;;;;;4.20;3.80;;;;;;;;;;4976295;28;20486;-70
2021/06/25 07:52:33;;;;;;;5.77;4.07;;;;;;;;;;4975576;28;20443;-70
2021/06/25 07:55:00;;;;;;;4.43;3.60;;;;;;;;;;4975935;28;20483;-68
2021/06/25 07:57:27;;;;;;;4.23;3.70;;;;;;;;;;4996243;23;20614;-66
2021/06/25 07:59:56;;;;;;;4.03;3.50;;;;;;;;;;4984886;28;20494;-67
2021/06/25 08:02:23;;;;;;;6.10;4.00;;;;;;;;;;4988847;28;20454;-66
2021/06/25 08:04:50;;;;;;;6.33;3.87;;;;;;;;;;4995611;28;20536;-68
2021/06/25 08:07:18;;;;;;;6.13;3.67;;;;;;;;;;4995482;28;20485;-67
2021/06/25 08:09:45;;;;;;;3.20;2.90;;;;;;;;;;4995782;28;20988;-67
2021/06/25 08:12:13;;;;;;;4.20;3.73;;;;;;;;;;4994679;28;20968;-67
2021/06/25 08:14:40;;;;;;;3.70;3.20;;;;;;;;;;4995324;28;20536;-68
2021/06/25 08:17:09;;;;;;;3.50;3.20;;;;;;;;;;4995375;28;20476;-68
2021/06/25 08:19:36;;;;;;;4.10;3.70;;;;;;;;;;4995186;28;20482;-68
2021/06/25 08:22:04;;;;;;;4.17;3.70;;;;;;;;;;4994875;28;20493;-68
2021/06/25 08:24:33;;;;;;;4.57;3.53;;;;;;;;;;4995114;28;20485;-67
2021/06/25 08:27:00;;;;;;;5.50;5.00;;;;;;;;;;4994668;28;20481;-67
2021/06/25 08:29:28;;;;;;;5.93;5.33;;;;;;;;;;4994089;28;20447;-68
2021/06/25 08:31:55;;;;;;;5.30;4.80;;;;;;;;;;4994736;28;20459;-67
2021/06/25 08:34:24;;;;;;;5.10;4.57;;;;;;;;;;4994582;28;20454;-68
2021/06/25 08:36:51;;;;;;;4.97;4.47;;;;;;;;;;4994602;28;20509;-68
2021/06/25 08:39:19;;;;;;;4.90;4.50;;;;;;;;;;4994546;28;20492;-68
2021/06/25 08:41:46;;;;;;;6.00;5.40;;;;;;;;;;4994382;28;20454;-68
2021/06/25 08:44:13;;;;;;;5.30;4.60;;;;;;;;;;4994569;28;20454;-68
2021/06/25 08:46:40;;;;;;;5.67;5.10;;;;;;;;;;4994213;28;20994;-68
2021/06/25 08:49:07;;;;;;;5.23;4.13;;;;;;;;;;4994625;28;20450;-68
2021/06/25 08:51:37;;;;;;;5.33;4.90;;;;;;;;;;4994163;28;20816;-68
2021/06/25 08:54:04;;;;;;;6.10;4.90;;;;;;;;;;4994557;28;20497;-67
2021/06/25 08:56:32;;;;;;;6.07;4.67;;;;;;;;;;4994093;28;21001;-68
2021/06/25 08:59:00;;;;;;;6.40;5.40;;;;;;;;;;4994948;28;20494;-67
2021/06/25 09:01:28;;;;;;;5.03;4.63;;;;;;;;;;4993745;28;20446;-68
2021/06/25 09:03:55;;;;;;;5.03;4.53;;;;;;;;;;4994361;28;20843;-68
2021/06/25 09:06:22;;;;;;;5.43;4.97;;;;;;;;;;4994297;28;20485;-68
2021/06/25 09:08:51;;;;;;;4.90;4.40;;;;;;;;;;4994608;28;20443;-67
2021/06/25 09:11:22;;;;;;;4.53;4.13;;;;;;;;;;4993851;28;20822;-68
2021/06/25 09:13:56;;;;;;;5.03;4.33;;;;;;;;;;4994071;28;20937;-68
2021/06/25 09:16:24;;;;;;;5.40;4.87;;;;;;;;;;4994036;28;20482;-68
2021/06/25 09:18:58;;;;;;;4.37;3.97;;;;;;;;;;4994114;28;20493;-69
2021/06/25 09:21:26;;;;;;;4.67;4.13;;;;;;;;;;4994083;28;20697;-69
2021/06/25 09:23:54;;;;;;;4.07;3.67;;;;;;;;;;4994110;28;20453;-68
2021/06/25 09:26:23;;;;;;;4.53;4.17;;;;;;;;;;4993547;28;20479;-68
2021/06/25 09:28:52;;;;;;;4.93;3.70;;;;;;;;;;4994015;28;20964;-67
2021/06/25 09:31:22;;;;;;;4.27;3.87;;;;;;;;;;4993616;28;20455;-68
2021/06/25 09:33:50;;;;;;;3.87;3.47;;;;;;;;;;4993806;28;20446;-68
2021/06/25 09:36:21;;;;;;;4.30;4.00;;;;;;;;;;4993747;28;20517;-68
2021/06/25 09:38:56;;;;;;;4.80;4.30;;;;;;;;;;4993923;28;20482;-67
2021/06/25 09:41:25;;;;;;;4.93;4.30;;;;;;;;;;4992644;28;20450;-68
2021/06/25 09:43:56;;;;;;;5.00;4.60;;;;;;;;;;4993587;28;20452;-67
2021/06/25 09:46:27;;;;;;;5.83;5.43;;;;;;;;;;4993562;28;20558;-68
2021/06/25 09:48:55;;;;;;;3.70;3.40;;;;;;;;;;4993697;28;20546;-67
2021/06/25 09:51:23;;;;;;;3.30;3.00;;;;;;;;;;4992782;28;20969;-68
2021/06/25 09:54:03;;;;;;;4.40;4.00;;;;;;;;;;4993704;28;20450;-68
2021/06/25 09:56:33;;;;;;;3.87;3.57;;;;;;;;;;4993145;28;20485;-68
2021/06/25 09:59:22;;;;;;;4.37;3.97;;;;;;;;;;4993192;28;20505;-67
2021/06/25 10:01:48;;;;;;;3.37;3.03;;;;;;;;;;4993157;28;20470;-67
2021/06/25 10:04:15;;;;;;;3.40;3.20;;;;;;;;;;4993329;28;20438;-67
2021/06/25 10:06:42;;;;;;;3.93;3.33;;;;;;;;;;4993178;28;21021;-68
2021/06/25 10:09:09;;;;;;;4.20;3.80;;;;;;;;;;4993165;28;20438;-67
2021/06/25 10:11:38;;;;;;;4.00;3.70;;;;;;;;;;4993168;28;20446;-68
2021/06/25 10:14:06;;;;;;;4.00;3.70;;;;;;;;;;4992841;28;20450;-67
2021/06/25 10:16:33;;;;;;;4.30;3.90;;;;;;;;;;4992788;28;20811;-68
2021/06/25 10:19:00;;;;;;;6.83;5.93;;;;;;;;;;4992755;28;20478;-68
2021/06/25 10:21:28;;;;;;;4.83;4.40;;;;;;;;;;4992693;28;20450;-67
2021/06/25 10:23:58;;;;;;;5.40;5.00;;;;;;;;;;4992918;28;20450;-67
2021/06/25 10:26:25;;;;;;;5.97;5.37;;;;;;;;;;4992487;28;20592;-67
2021/06/25 10:28:54;;;;;;;4.73;4.33;;;;;;;;;;4992474;28;20450;-68
2021/06/25 10:31:22;;;;;;;5.23;4.80;;;;;;;;;;4992720;28;20465;-67
2021/06/25 10:33:50;;;;;;;4.90;4.50;;;;;;;;;;4993033;28;20508;-68
2021/06/25 10:36:19;;;;;;;6.13;4.40;;;;;;;;;;4992463;28;20940;-68
2021/06/25 10:38:47;;;;;;;5.03;4.50;;;;;;;;;;4992717;28;20492;-68
2021/06/25 10:41:15;;;;;;;5.47;4.97;;;;;;;;;;4992501;28;20827;-67
2021/06/25 10:43:47;;;;;;;5.87;5.27;;;;;;;;;;4992480;28;20457;-68
2021/06/25 10:46:35;;;;;;;6.10;5.50;;;;;;;;;;4992641;28;20474;-67
2021/06/25 10:49:03;;;;;;;4.43;4.13;;;;;;;;;;4992578;28;20454;-67
2021/06/25 10:51:33;;;;;;;5.70;5.20;;;;;;;;;;4991908;28;20821;-68
2021/06/25 10:54:15;;;;;;;4.63;4.23;;;;;;;;;;4992194;28;21013;-67
2021/06/25 10:56:43;;;;;;;5.13;4.73;;;;;;;;;;4992072;28;20616;-68
2021/06/25 10:59:25;;;;;;;4.43;3.93;;;;;;;;;;4992265;28;20846;-68
2021/06/25 11:01:55;;;;;;;5.20;4.70;;;;;;;;;;4992164;28;20541;-68
2021/06/25 11:04:36;;;;;;;3.50;3.20;;;;;;;;;;4992081;28;20656;-67
2021/06/25 11:07:06;;;;;;;6.10;3.50;;;;;;;;;;4991985;28;20470;-69
2021/06/25 11:09:52;;;;;;;3.43;3.13;;;;;;;;;;4992782;28;20545;-68
2021/06/25 11:12:21;;;;;;;3.97;3.67;;;;;;;;;;4992177;28;20453;-68
2021/06/25 11:14:48;;;;;;;4.23;3.93;;;;;;;;;;4992151;28;20482;-68
2021/06/25 11:17:30;;;;;;;3.63;2.67;;;;;;;;;;4992154;28;20476;-68
2021/06/25 11:20:16;;;;;;;4.30;3.87;;;;;;;;;;4991851;28;20858;-68
2021/06/25 11:22:43;;;;;;;5.43;5.03;;;;;;;;;;4992056;28;20450;-68
2021/06/25 11:25:13;;;;;;;4.93;4.57;;;;;;;;;;4992004;28;20452;-68
2021/06/25 11:27:59;;;;;;;5.47;5.00;;;;;;;;;;4992138;28;20474;-67
2021/06/25 11:30:41;;;;;;;4.80;4.40;;;;;;;;;;4991935;28;20461;-67
2021/06/25 11:33:23;;;;;;;3.57;3.27;;;;;;;;;;4991868;28;20453;-68
2021/06/25 11:35:52;;;;;;;4.20;3.87;;;;;;;;;;4992186;28;20585;-68
2021/06/25 11:38:19;;;;;;;4.53;4.10;;;;;;;;;;4992041;28;20942;-67
2021/06/25 11:40:49;;;;;;;4.03;3.73;;;;;;;;;;4991933;28;20492;-68
2021/06/25 11:43:16;;;;;;;4.27;3.87;;;;;;;;;;4992068;28;20457;-68
2021/06/25 11:45:50;;;;;;;4.10;3.80;;;;;;;;;;4992355;28;20474;-68
2021/06/25 11:48:18;;;;;;;5.07;4.67;;;;;;;;;;4991941;28;20985;-68
2021/06/25 11:50:45;;;;;;;5.37;4.87;;;;;;;;;;4991956;28;20450;-67
2021/06/25 11:53:14;;;;;;;4.40;4.10;;;;;;;;;;4992237;28;20450;-68
2021/06/25 11:55:43;;;;;;;4.67;4.27;;;;;;;;;;4991819;28;20470;-69
2021/06/25 11:58:19;;;;;;;4.47;4.07;;;;;;;;;;4991871;28;20493;-68
2021/06/25 12:00:46;;;;;;;5.50;5.00;;;;;;;;;;4991174;28;20485;-68
2021/06/25 12:03:13;;;;;;;4.77;4.40;;;;;;;;;;4991816;28;21065;-68
2021/06/25 12:05:45;;;;;;;4.43;3.77;;;;;;;;;;4995269;28;20466;-67
2021/06/25 12:08:15;;;;;;;4.20;3.80;;;;;;;;;;4995431;28;20450;-68
2021/06/25 12:10:43;;;;;;;3.90;3.50;;;;;;;;;;4995257;28;20512;-67
2021/06/25 12:13:11;;;;;;;4.50;4.10;;;;;;;;;;4994751;28;20897;-68
2021/06/25 12:15:44;;;;;;;5.00;4.50;;;;;;;;;;4995198;28;20451;-67
2021/06/25 12:18:18;;;;;;;6.80;6.20;;;;;;;;;;4995300;28;20434;-68
2021/06/25 12:20:46;;;;;;;6.53;6.03;;;;;;;;;;4995281;28;20466;-68
2021/06/25 12:23:14;;;;;;;7.20;6.70;;;;;;;;;;4994902;28;20453;-68
2021/06/25 12:25:43;;;;;;;6.03;5.53;;;;;;;;;;4995118;28;20874;-68
2021/06/25 12:28:12;;;;;;;5.17;4.67;;;;;;;;;;4995114;28;20501;-68
2021/06/25 12:30:39;;;;;;;4.90;4.50;;;;;;;;;;4994814;28;20442;-67
2021/06/25 12:33:08;;;;;;;5.27;4.87;;;;;;;;;;4994787;28;20879;-67
2021/06/25 12:35:36;;;;;;;5.40;5.00;;;;;;;;;;4994849;28;20451;-67
2021/06/25 12:38:06;;;;;;;4.70;4.13;;;;;;;;;;4994465;28;20960;-67
2021/06/25 12:40:41;;;;;;;5.90;5.30;;;;;;;;;;4995037;28;20571;-67
2021/06/25 12:43:09;;;;;;;6.13;4.63;;;;;;;;;;4994731;28;20446;-67
2021/06/25 12:45:43;;;;;;;6.13;5.63;;;;;;;;;;4994327;28;20800;-68
2021/06/25 12:48:11;;;;;;;6.00;5.60;;;;;;;;;;4994814;28;20435;-68
2021/06/25 12:50:41;;;;;;;4.80;4.40;;;;;;;;;;4994175;28;20439;-66
2021/06/25 12:53:16;;;;;;;4.70;4.30;;;;;;;;;;4994152;28;20969;-68
2021/06/25 12:55:47;;;;;;;3.90;3.60;;;;;;;;;;4994218;28;20482;-67
2021/06/25 12:58:16;;;;;;;4.63;4.30;;;;;;;;;;4994401;28;20457;-67
2021/06/25 13:00:44;;;;;;;5.50;5.10;;;;;;;;;;4994082;28;21009;-67
2021/06/25 13:03:11;;;;;;;4.30;3.90;;;;;;;;;;4993937;28;20549;-67
2021/06/25 13:05:39;;;;;;;4.47;4.07;;;;;;;;;;4994148;28;20927;-68
2021/06/25 13:08:16;;;;;;;4.10;3.80;;;;;;;;;;4994011;28;20472;-67
2021/06/25 13:10:45;;;;;;;4.43;3.97;;;;;;;;;;4993855;28;20450;-68
2021/06/25 13:13:22;;;;;;;4.40;4.00;;;;;;;;;;4993974;28;20454;-68
2021/06/25 13:15:50;;;;;;;6.20;5.60;;;;;;;;;;4994189;28;20553;-67
2021/06/25 13:18:31;;;;;;;5.40;5.00;;;;;;;;;;4993648;28;20450;-67
2021/06/25 13:21:31;;;;;;;4.83;4.43;;;;;;;;;;4993928;28;20489;-68
2021/06/25 13:24:04;;;;;;;4.97;4.57;;;;;;;;;;4993586;28;20447;-68
2021/06/25 13:26:36;;;;;;;4.70;4.30;;;;;;;;;;4994013;28;20534;-68
2021/06/25 13:29:04;;;;;;;4.63;4.23;;;;;;;;;;4993736;28;20549;-67
2021/06/25 13:31:31;;;;;;;5.70;5.23;;;;;;;;;;4993655;28;20446;-68
2021/06/25 13:33:58;;;;;;;4.90;4.50;;;;;;;;;;4993763;28;20453;-67
2021/06/25 13:36:26;;;;;;;5.53;5.03;;;;;;;;;;4993413;28;20477;-68
2021/06/25 13:39:07;;;;;;;5.90;5.40;;;;;;;;;;4993664;28;20886;-67
2021/06/25 13:41:38;;;;;;;4.93;4.40;;;;;;;;;;4993200;28;20474;-68
2021/06/25 13:44:06;;;;;;;6.20;5.47;;;;;;;;;;4993795;28;20431;-68
2021/06/25 13:46:40;;;;;;;4.87;4.47;;;;;;;;;;4993282;28;20473;-67
2021/06/25 13:49:07;;;;;;;4.80;4.40;;;;;;;;;;4993352;28;20549;-67
2021/06/25 13:51:35;;;;;;;4.47;4.13;;;;;;;;;;4993109;28;20448;-67
2021/06/25 13:54:17;;;;;;;5.00;4.60;;;;;;;;;;4993360;28;20451;-67
2021/06/25 13:56:45;;;;;;;5.03;4.63;;;;;;;;;;5003679;23;20499;-69
2021/06/25 13:59:12;;;;;;;6.20;5.70;;;;;;;;;;4980171;28;20454;-68
2021/06/25 14:01:46;;;;;;;4.90;4.50;;;;;;;;;;4985761;28;20852;-66
2021/06/25 14:04:19;;;;;;;5.23;4.83;;;;;;;;;;4994584;28;20446;-67
2021/06/25 14:06:50;;;;;;;5.20;4.90;;;;;;;;;;4994225;28;20470;-68
2021/06/25 14:09:19;;;;;;;5.37;4.90;;;;;;;;;;4993851;28;20450;-66
2021/06/25 14:11:48;;;;;;;4.60;4.30;;;;;;;;;;4994021;28;20442;-69
2021/06/25 14:14:15;;;;;;;4.97;4.57;;;;;;;;;;4994242;28;20459;-66
2021/06/25 14:16:43;;;;;;;4.10;3.80;;;;;;;;;;4993560;28;20481;-68
2021/06/25 14:19:11;;;;;;;5.67;4.63;;;;;;;;;;4993471;28;20473;-66
2021/06/25 14:21:39;;;;;;;6.33;5.90;;;;;;;;;;4993319;28;20911;-67
2021/06/25 14:24:07;;;;;;;4.77;4.30;;;;;;;;;;4993192;28;20536;-66
2021/06/25 14:26:34;;;;;;;5.20;4.80;;;;;;;;;;4992141;28;20478;-68
2021/06/25 14:29:04;;;;;;;5.03;4.53;;;;;;;;;;4994207;28;20476;-67
2021/06/25 14:31:33;;;;;;;4.53;4.20;;;;;;;;;;4994329;28;20512;-67
2021/06/25 14:34:00;;;;;;;4.90;4.50;;;;;;;;;;4993754;28;20465;-66
2021/06/25 14:36:27;;;;;;;4.23;3.93;;;;;;;;;;4993820;28;20497;-67
2021/06/25 14:38:55;;;;;;;5.20;4.80;;;;;;;;;;4993659;28;20455;-66
2021/06/25 14:41:22;;;;;;;4.80;4.40;;;;;;;;;;4994295;28;20592;-66
2021/06/25 14:43:49;;;;;;;5.03;4.70;;;;;;;;;;4993829;28;20446;-67
2021/06/25 14:46:18;;;;;;;4.67;4.37;;;;;;;;;;4994005;28;20466;-67
2021/06/25 14:48:46;;;;;;;4.70;4.20;;;;;;;;;;4993081;28;20802;-69
2021/06/25 14:51:13;;;;;;;4.30;4.00;;;;;;;;;;4993668;28;20477;-69
2021/06/25 14:53:41;;;;;;;4.87;4.47;;;;;;;;;;4993590;28;20457;-67